Latest Coastal Weather Observations for Larapuna (Eddystone Point)

IDT60701

Issued at 7:25 pm EST Tuesday 22 July 2014 (issued every 10 minutes, with the page automatically refreshed every 10 minutes)

About coastal observations | Map of coastal stations | Coastal observations for TAS | Marine services | Other Formats
Station Details ID: 092045 Name: LARAPUNA (EDDYSTONE POINT) Lat: -40.99 Lon: 148.35 Height: 19.7 m
Data from the previous 72 hours. | See also: Recent months at Larapuna (Eddystone Point)
Date/Time
EST
Temp

°C
Wind Pressure Rain
since 9am
mm
Weather Cloud Vis
km
Sea
Height
m
Swell
Dir
 
Speed
knots
Gust
knots
hPa Trend Height
m
Period
s
Dir
22/07:00pm 9.5 NW 7 8 1024.9 - 0.0 - - - - - - -
22/06:30pm 9.9 NNW 6 8 1024.7 - 0.0 - - - - - - -
22/06:00pm 10.3 NW 6 8 1024.7 - 0.0 - - - - - - -
22/05:30pm 11.2 NW 6 7 1024.4 - 0.0 - - - - - - -
22/05:00pm 11.7 N 4 6 1024.3 - 0.0 - - - - - - -
22/04:30pm 12.2 WSW 5 7 1024.2 - 0.0 - - - - - - -
22/04:00pm 12.7 W 5 6 1024.1 - 0.0 - - - - - - -
22/03:30pm 12.6 N 6 7 1024.0 - 0.0 - - - - - - -
22/03:00pm 12.8 N 6 8 1024.1 - 0.0 - - - - - - -
22/02:30pm 12.8 N 7 8 1024.0 - 0.0 - - - - - - -
22/02:00pm 13.0 N 7 9 1024.1 - 0.0 - - - - - - -
22/01:30pm 13.3 NNE 7 8 1024.1 - 0.0 - - - - - - -
22/01:00pm 13.8 NE 5 6 1024.5 - 0.0 - - - - - - -
22/12:30pm 15.2 ENE 5 6 1024.8 - 0.0 - - - - - - -
22/12:00pm 13.3 W 2 6 1025.3 - 0.0 - - - - - - -
22/11:30am 12.5 S 3 5 1025.7 - 0.0 - - - - - - -
22/11:00am 11.7 SSW 4 6 1026.2 - 0.0 - - - - - - -
22/10:30am 11.8 SSW 5 7 1026.2 - 0.0 - - - - - - -
22/10:00am 12.0 SW 5 6 1026.5 - 0.0 - - - - - - -
22/09:30am 11.1 WSW 4 5 1026.2 - 0.0 - - - - - - -
22/09:00am 10.5 WSW 5 6 1026.2 - 0.0 - - - - - - -
22/08:30am 9.0 SW 4 6 1026.0 - 0.0 - - - - - - -
22/08:00am 8.6 WSW 5 6 1026.0 - 0.0 - - - - - - -
22/07:30am 8.6 SW 4 5 1025.5 - 0.0 - - - - - - -
22/07:00am 8.7 SW 5 6 1025.4 - 0.0 - - - - - - -
22/06:30am 8.7 SW 6 7 1025.2 - 0.0 - - - - - - -
22/06:00am 8.8 SW 5 6 1025.2 - 0.0 - - - - - - -
22/05:30am 9.2 SW 6 7 1024.9 - 0.0 - - - - - - -
22/05:00am 8.9 SW 5 6 1025.0 - 0.0 - - - - - - -
22/04:30am 8.6 SW 5 5 1024.9 - 0.0 - - - - - - -
22/04:00am 8.6 SW 5 6 1024.7 - 0.0 - - - - - - -
22/03:30am 8.2 SW 7 9 1024.7 - 0.0 - - - - - - -
22/03:00am 8.4 SSW 6 7 1025.0 - 0.0 - - - - - - -
22/02:30am 7.9 SW 6 7 1025.2 - 0.0 - - - - - - -
22/02:00am 8.3 SW 6 6 1025.4 - 0.0 - - - - - - -
22/01:30am 7.8 SW 5 6 1025.3 - 0.0 - - - - - - -
22/01:00am 7.7 SW 6 7 1025.3 - 0.0 - - - - - - -
22/12:30am 7.5 SSW 6 7 1025.3 - 0.0 - - - - - - -
22/12:00am 7.2 SW 5 6 1025.5 - 0.0 - - - - - - -
 
Date/Time
EST
Temp

°C
Wind Pressure Rain
since 9am
mm
Weather Cloud Vis
km
Sea
Height
m
Swell
Dir
 
Speed
knots
Gust
knots
hPa Trend Height
m
Period
s
Dir
21/11:30pm 7.4 SW 5 6 1025.6 - 0.0 - - - - - - -
21/11:00pm 7.9 SW 5 6 1025.8 - 0.0 - - - - - - -
21/10:30pm 9.5 SW 4 6 1025.7 - 0.0 - - - - - - -
21/10:00pm 9.4 W 5 5 1025.9 - 0.0 - - - - - - -
21/09:30pm 9.4 W 4 5 1026.0 - 0.0 - - - - - - -
21/09:00pm 9.8 WSW 4 5 1026.0 - 0.0 - - - - - - -
21/08:30pm 9.9 WSW 5 5 1025.9 - 0.0 - - - - - - -
21/08:00pm 10.5 W 3 3 1026.0 - 0.0 - - - - - - -
21/07:30pm 10.3 W 4 5 1025.9 - 0.0 - - - - - - -
21/07:00pm 10.4 CALM 0 0 1025.9 - 0.0 - - - - - - -
21/06:30pm 10.3 CALM 0 0 1025.7 - 0.0 - - - - - - -
21/06:00pm 10.1 CALM 0 0 1025.5 - 0.0 - - - - - - -
21/05:30pm 11.0 CALM 0 0 1025.4 - 0.0 - - - - - - -
21/05:00pm 11.0 E 3 4 1025.4 - 0.0 - - - - - - -
21/04:30pm 11.2 ESE 3 4 1025.1 - 0.0 - - - - - - -
21/04:00pm 12.0 CALM 0 0 1025.2 - 0.0 - - - - - - -
21/03:30pm 12.1 CALM 0 0 1025.0 - 0.0 - - - - - - -
21/03:00pm 12.5 ESE 3 4 1025.1 - 0.0 - - - - - - -
21/02:30pm 13.3 SE 4 5 1024.9 - 0.0 - - - - - - -
21/02:00pm 13.7 S 5 6 1025.1 - 0.0 - - - - - - -
21/01:30pm 14.1 S 5 6 1025.1 - 0.0 - - - - - - -
21/01:00pm 13.5 S 5 6 1025.5 - 0.0 - - - - - - -
21/12:30pm 13.4 S 6 7 1025.7 - 0.0 - - - - - - -
21/12:00pm 13.5 SSW 6 7 1026.2 - 0.0 - - - - - - -
21/11:30am 12.8 SSW 6 7 1026.6 - 0.0 - - - - - - -
21/11:00am 12.4 SSW 8 9 1026.9 - 0.0 - - - - - - -
21/10:30am 11.2 SSW 8 9 1027.1 - 0.0 - - - - - - -
21/10:00am 11.6 WSW 8 9 1027.2 - 0.0 - - - - - - -
21/09:30am 10.1 WSW 7 8 1027.1 - 0.0 - - - - - - -
21/09:00am 8.4 W 6 8 1027.3 - 0.0 - - - - - - -
21/08:30am 8.3 W 8 9 1027.0 - 0.0 - - - - - - -
21/08:00am 7.6 W 8 9 1026.9 - 0.0 - - - - - - -
21/07:30am 7.6 W 6 7 1026.7 - 0.0 - - - - - - -
21/07:00am 8.3 WNW 4 5 1026.6 - 0.0 - - - - - - -
21/06:30am 8.5 W 4 5 1026.5 - 0.0 - - - - - - -
21/06:00am 7.8 WNW 6 7 1026.6 - 0.0 - - - - - - -
21/05:30am 7.6 W 7 7 1026.4 - 0.0 - - - - - - -
21/05:00am 7.7 WNW 7 7 1026.3 - 0.0 - - - - - - -
21/04:30am 8.3 W 5 5 1026.1 - 0.0 - - - - - - -
21/04:00am 8.2 WSW 5 5 1026.2 - 0.0 - - - - - - -
21/03:30am 9.4 W 4 5 1026.1 - 0.0 - - - - - - -
21/03:00am 8.8 WSW 4 6 1026.4 - 0.0 - - - - - - -
21/02:30am 9.1 WSW 3 5 1026.6 - 0.0 - - - - - - -
21/02:00am 9.7 W 5 8 1026.8 - 0.0 - - - - - - -
21/01:30am 9.0 W 8 9 1026.6 - 0.0 - - - - - - -
21/01:00am 9.1 W 8 10 1026.7 - 0.0 - - - - - - -
21/12:30am 8.6 W 8 9 1026.6 - 0.0 - - - - - - -
21/12:00am 8.7 W 8 9 1026.9 - 0.0 - - - - - - -
 
Date/Time
EST
Temp

°C
Wind Pressure Rain
since 9am
mm
Weather Cloud Vis
km
Sea
Height
m
Swell
Dir
 
Speed
knots
Gust
knots
hPa Trend Height
m
Period
s
Dir
20/11:30pm 8.8 W 8 8 1026.9 - 0.0 - - - - - - -
20/11:00pm 8.7 W 8 9 1027.1 - 0.0 - - - - - - -
20/10:30pm 7.6 W 9 9 1027.0 - 0.0 - - - - - - -
20/10:00pm 7.7 W 8 9 1027.0 - 0.0 - - - - - - -
20/09:30pm 7.9 WNW 8 9 1026.9 - 0.0 - - - - - - -
20/09:00pm 8.0 WNW 8 8 1026.9 - 0.0 - - - - - - -
20/08:30pm 8.2 W 7 8 1026.9 - 0.0 - - - - - - -
20/08:00pm 8.5 W 6 6 1027.0 - 0.0 - - - - - - -
20/07:30pm 8.5 NW 6 6 1026.8 - 0.0 - - - - - - -
20/07:00pm 9.1 NW 5 6 1026.8 - 0.0 - - - - - - -
20/06:30pm 9.4 NW 4 5 1026.5 - 0.0 - - - - - - -
20/06:00pm 9.9 NNW 4 5 1026.3 - 0.0 - - - - - - -
20/05:30pm 10.6 N 4 5 1026.0 - 0.0 - - - - - - -
20/05:00pm 10.9 NNE 4 6 1026.0 - 0.0 - - - - - - -
20/04:30pm 12.0 NNE 5 6 1025.9 - 0.0 - - - - - - -
20/04:00pm 12.9 ENE 4 5 1025.9 - 0.0 - - - - - - -
20/03:30pm 13.0 ENE 5 6 1025.6 - 0.0 - - - - - - -
20/03:00pm 12.9 ESE 6 7 1025.6 - 0.0 - - - - - - -
20/02:30pm 13.2 SE 4 6 1025.6 - 0.0 - - - - - - -
20/02:00pm 13.2 SSE 5 5 1025.8 - 0.0 - - - - - - -
20/01:30pm 13.7 SSE 5 6 1025.7 - 0.0 - - - - - - -
20/01:00pm 13.6 SSE 5 6 1026.0 - 0.0 - - - - - - -
20/12:30pm 13.7 S 5 7 1026.2 - 0.0 - - - - - - -
20/12:00pm 13.2 S 6 7 1026.6 - 0.0 - - - - - - -
20/11:30am 13.0 SSW 4 5 1026.7 - 0.0 - - - - - - -
20/11:00am 12.8 SSW 6 6 1027.2 - 0.0 - - - - - - -
20/10:30am 12.1 SSW 7 8 1027.0 - 0.0 - - - - - - -
20/10:00am 11.7 SSW 5 6 1027.1 - 0.0 - - - - - - -
20/09:30am 10.6 SW 6 7 1026.9 - 0.0 - - - - - - -
20/09:00am 9.6 SSW 7 8 1026.8 - 0.2 - - - - - - -
20/08:30am 7.7 SW 5 6 1026.4 - 0.2 - - - - - - -
20/08:00am 6.7 SW 6 7 1026.3 - 0.2 - - - - - - -
20/07:30am 6.0 SSW 6 6 1026.1 - 0.2 - - - - - - -
20/07:00am 6.7 SW 5 6 1026.0 - 0.2 - - - - - - -
20/06:30am 5.6 SW 6 7 1025.6 - 0.2 - - - - - - -
20/06:00am 6.2 SW 7 8 1025.5 - 0.2 - - - - - - -
20/05:30am 6.1 SW 5 6 1025.2 - 0.2 - - - - - - -
20/05:00am 6.3 SW 6 7 1025.4 - 0.2 - - - - - - -
20/04:30am 6.3 SSW 5 6 1025.1 - 0.2 - - - - - - -
20/04:00am 6.2 SW 5 6 1025.2 - 0.2 - - - - - - -
20/03:30am 6.0 SW 5 6 1025.1 - 0.2 - - - - - - -
20/03:00am 6.2 WSW 7 9 1025.4 - 0.2 - - - - - - -
20/02:30am 6.2 WSW 8 10 1025.5 - 0.2 - - - - - - -
20/02:00am 5.9 W 9 9 1025.7 - 0.2 - - - - - - -
20/01:30am 5.7 W 8 10 1025.6 - 0.2 - - - - - - -
20/01:00am 5.8 W 10 11 1025.7 - 0.2 - - - - - - -
20/12:30am 5.7 W 7 9 1025.9 - 0.2 - - - - - - -
20/12:00am 6.4 WSW 6 7 1026.2 - 0.2 - - - - - - -
 
Date/Time
EST
Temp

°C
Wind Pressure Rain
since 9am
mm
Weather Cloud Vis
km
Sea
Height
m
Swell
Dir
 
Speed
knots
Gust
knots
hPa Trend Height
m
Period
s
Dir
19/11:30pm 7.0 WSW 5 7 1026.2 - 0.2 - - - - - - -
19/11:00pm 7.3 WSW 6 8 1026.4 - 0.2 - - - - - - -
19/10:30pm 7.2 W 9 11 1026.4 - 0.2 - - - - - - -
19/10:00pm 7.1 WNW 10 11 1026.6 - 0.2 - - - - - - -
19/09:30pm 7.5 WNW 10 11 1026.7 - 0.2 - - - - - - -
19/09:00pm 7.4 WNW 9 10 1026.8 - 0.2 - - - - - - -
19/08:30pm 7.5 WNW 9 10 1026.9 - 0.2 - - - - - - -
19/08:00pm 7.4 NW 9 9 1026.9 - 0.2 - - - - - - -
19/07:30pm 7.4 NW 9 10 1026.8 - 0.2 - - - - - - -

Other Formats:

Comma delimited format used in spreadsheet applications
http://www.bom.gov.au/fwo/IDT60701/IDT60701.94983.axf

JavaScript Object Notation format (JSON) in row-major order
http://www.bom.gov.au/fwo/IDT60701/IDT60701.94983.json